sensor_id;sensor_type;location;lat;lon;timestamp;pressure;altitude;pressure_sealevel;temperature
78669;BMP280;67984;45.118;20.724;2023-02-28T00:08:56;101361.84;;;1.92
78669;BMP280;67984;45.118;20.724;2023-02-28T00:18:57;101376.72;;;1.95
78669;BMP280;67984;45.118;20.724;2023-02-28T00:28:58;101383.75;;;1.90
78669;BMP280;67984;45.118;20.724;2023-02-28T00:38:58;101377.91;;;1.84
78669;BMP280;67984;45.118;20.724;2023-02-28T00:49:02;101386.03;;;1.78
78669;BMP280;67984;45.118;20.724;2023-02-28T00:59:03;101373.47;;;1.77
78669;BMP280;67984;45.118;20.724;2023-02-28T01:09:05;101378.19;;;1.70
78669;BMP280;67984;45.118;20.724;2023-02-28T01:19:06;101364.44;;;1.61
78669;BMP280;67984;45.118;20.724;2023-02-28T01:29:07;101365.00;;;1.58
78669;BMP280;67984;45.118;20.724;2023-02-28T01:39:07;101363.59;;;1.47
78669;BMP280;67984;45.118;20.724;2023-02-28T01:49:12;101372.72;;;1.58
78669;BMP280;67984;45.118;20.724;2023-02-28T01:59:27;101365.53;;;1.55
78669;BMP280;67984;45.118;20.724;2023-02-28T02:09:30;101373.25;;;1.55
78669;BMP280;67984;45.118;20.724;2023-02-28T02:40:21;101376.03;;;1.58
78669;BMP280;67984;45.118;20.724;2023-02-28T02:50:27;101372.63;;;1.63
78669;BMP280;67984;45.118;20.724;2023-02-28T03:00:41;101392.06;;;1.69
78669;BMP280;67984;45.118;20.724;2023-02-28T03:10:46;101384.38;;;1.69
78669;BMP280;67984;45.118;20.724;2023-02-28T03:31:30;101408.28;;;1.69
78669;BMP280;67984;45.118;20.724;2023-02-28T03:41:36;101407.63;;;1.77
78669;BMP280;67984;45.118;20.724;2023-02-28T03:51:41;101414.13;;;1.75
78669;BMP280;67984;45.118;20.724;2023-02-28T04:01:44;101415.66;;;1.76
78669;BMP280;67984;45.118;20.724;2023-02-28T04:11:50;101411.25;;;1.76
78669;BMP280;67984;45.118;20.724;2023-02-28T04:21:52;101414.13;;;1.75
78669;BMP280;67984;45.118;20.724;2023-02-28T04:31:54;101407.34;;;1.79
78669;BMP280;67984;45.118;20.724;2023-02-28T04:41:55;101414.03;;;1.80
78669;BMP280;67984;45.118;20.724;2023-02-28T04:51:56;101427.94;;;1.79
78669;BMP280;67984;45.118;20.724;2023-02-28T05:01:56;101421.75;;;1.80
78669;BMP280;67984;45.118;20.724;2023-02-28T05:11:57;101431.75;;;1.81
78669;BMP280;67984;45.118;20.724;2023-02-28T05:21:58;101429.84;;;1.86
78669;BMP280;67984;45.118;20.724;2023-02-28T05:32:00;101439.59;;;1.89
78669;BMP280;67984;45.118;20.724;2023-02-28T05:42:01;101446.47;;;1.94
78669;BMP280;67984;45.118;20.724;2023-02-28T05:52:01;101457.16;;;2.01
78669;BMP280;67984;45.118;20.724;2023-02-28T06:02:02;101459.88;;;2.09
78669;BMP280;67984;45.118;20.724;2023-02-28T06:12:05;101464.66;;;2.16
78669;BMP280;67984;45.118;20.724;2023-02-28T06:22:07;101473.56;;;2.05
78669;BMP280;67984;45.118;20.724;2023-02-28T06:32:08;101475.81;;;2.11
78669;BMP280;67984;45.118;20.724;2023-02-28T06:42:08;101487.88;;;2.11
78669;BMP280;67984;45.118;20.724;2023-02-28T06:52:09;101487.13;;;2.10
78669;BMP280;67984;45.118;20.724;2023-02-28T07:02:10;101486.34;;;2.10
78669;BMP280;67984;45.118;20.724;2023-02-28T07:12:10;101478.44;;;2.06
78669;BMP280;67984;45.118;20.724;2023-02-28T07:22:11;101504.09;;;2.11
78669;BMP280;67984;45.118;20.724;2023-02-28T07:32:12;101495.81;;;2.14
78669;BMP280;67984;45.118;20.724;2023-02-28T07:42:13;101508.06;;;2.22
78669;BMP280;67984;45.118;20.724;2023-02-28T07:52:13;101497.31;;;2.34
78669;BMP280;67984;45.118;20.724;2023-02-28T08:02:16;101510.78;;;2.44
78669;BMP280;67984;45.118;20.724;2023-02-28T08:12:16;101507.56;;;2.52
78669;BMP280;67984;45.118;20.724;2023-02-28T08:22:17;101496.75;;;2.50
78669;BMP280;67984;45.118;20.724;2023-02-28T08:32:18;101515.66;;;2.59
78669;BMP280;67984;45.118;20.724;2023-02-28T08:42:18;101518.25;;;2.59
78669;BMP280;67984;45.118;20.724;2023-02-28T08:52:19;101514.38;;;2.75
78669;BMP280;67984;45.118;20.724;2023-02-28T09:02:20;101522.78;;;2.80
78669;BMP280;67984;45.118;20.724;2023-02-28T09:12:22;101521.06;;;3.03
78669;BMP280;67984;45.118;20.724;2023-02-28T09:22:23;101520.59;;;3.28
78669;BMP280;67984;45.118;20.724;2023-02-28T09:32:25;101513.22;;;3.35
78669;BMP280;67984;45.118;20.724;2023-02-28T09:42:33;101506.25;;;3.35
78669;BMP280;67984;45.118;20.724;2023-02-28T09:52:36;101512.38;;;3.39
78669;BMP280;67984;45.118;20.724;2023-02-28T10:23:31;101518.22;;;3.88
78669;BMP280;67984;45.118;20.724;2023-02-28T10:33:34;101522.41;;;3.98
78669;BMP280;67984;45.118;20.724;2023-02-28T10:43:36;101511.69;;;4.04
78669;BMP280;67984;45.118;20.724;2023-02-28T10:53:45;101501.28;;;4.18
78669;BMP280;67984;45.118;20.724;2023-02-28T11:03:49;101498.06;;;4.43
78669;BMP280;67984;45.118;20.724;2023-02-28T11:13:55;101499.00;;;4.46
78669;BMP280;67984;45.118;20.724;2023-02-28T11:24:14;101485.47;;;4.41
78669;BMP280;67984;45.118;20.724;2023-02-28T11:34:24;101478.47;;;4.42
78669;BMP280;67984;45.118;20.724;2023-02-28T11:55:17;101472.25;;;4.51
78669;BMP280;67984;45.118;20.724;2023-02-28T12:15:45;101467.16;;;4.68
78669;BMP280;67984;45.118;20.724;2023-02-28T12:36:14;101469.63;;;4.73
78669;BMP280;67984;45.118;20.724;2023-02-28T13:06:44;101464.84;;;4.58
78669;BMP280;67984;45.118;20.724;2023-02-28T13:17:10;101460.69;;;4.48
78669;BMP280;67984;45.118;20.724;2023-02-28T13:27:36;101451.94;;;4.58
78669;BMP280;67984;45.118;20.724;2023-02-28T13:37:44;101462.38;;;4.53
78669;BMP280;67984;45.118;20.724;2023-02-28T13:47:57;101451.06;;;4.32
78669;BMP280;67984;45.118;20.724;2023-02-28T14:08:22;101445.50;;;4.39
78669;BMP280;67984;45.118;20.724;2023-02-28T14:38:57;101428.94;;;4.48
78669;BMP280;67984;45.118;20.724;2023-02-28T14:49:00;101445.13;;;4.62
78669;BMP280;67984;45.118;20.724;2023-02-28T14:59:00;101442.22;;;4.63
78669;BMP280;67984;45.118;20.724;2023-02-28T15:09:16;101435.38;;;4.59
78669;BMP280;67984;45.118;20.724;2023-02-28T15:19:23;101444.31;;;4.53
78669;BMP280;67984;45.118;20.724;2023-02-28T15:29:27;101445.97;;;4.49
78669;BMP280;67984;45.118;20.724;2023-02-28T15:39:29;101428.63;;;4.49
78669;BMP280;67984;45.118;20.724;2023-02-28T16:00:11;101422.88;;;4.52
78669;BMP280;67984;45.118;20.724;2023-02-28T16:10:13;101420.13;;;4.41
78669;BMP280;67984;45.118;20.724;2023-02-28T16:20:20;101434.72;;;4.45
78669;BMP280;67984;45.118;20.724;2023-02-28T16:30:26;101451.28;;;4.44
78669;BMP280;67984;45.118;20.724;2023-02-28T16:40:27;101447.59;;;4.37
78669;BMP280;67984;45.118;20.724;2023-02-28T16:50:31;101455.03;;;4.38
78669;BMP280;67984;45.118;20.724;2023-02-28T17:00:34;101463.84;;;4.37
78669;BMP280;67984;45.118;20.724;2023-02-28T17:10:35;101475.75;;;4.46
78669;BMP280;67984;45.118;20.724;2023-02-28T17:20:36;101474.06;;;4.42
78669;BMP280;67984;45.118;20.724;2023-02-28T17:30:36;101470.53;;;4.38
78669;BMP280;67984;45.118;20.724;2023-02-28T17:40:37;101484.50;;;4.37
78669;BMP280;67984;45.118;20.724;2023-02-28T17:50:38;101473.00;;;4.43
78669;BMP280;67984;45.118;20.724;2023-02-28T18:00:39;101469.97;;;4.41
78669;BMP280;67984;45.118;20.724;2023-02-28T18:10:39;101474.97;;;4.38
78669;BMP280;67984;45.118;20.724;2023-02-28T18:20:40;101476.06;;;4.45
78669;BMP280;67984;45.118;20.724;2023-02-28T18:30:41;101464.22;;;4.52
78669;BMP280;67984;45.118;20.724;2023-02-28T18:40:42;101455.69;;;4.52
78669;BMP280;67984;45.118;20.724;2023-02-28T18:50:51;101467.88;;;4.51
78669;BMP280;67984;45.118;20.724;2023-02-28T19:00:52;101458.28;;;4.52
78669;BMP280;67984;45.118;20.724;2023-02-28T19:10:53;101470.19;;;4.61
78669;BMP280;67984;45.118;20.724;2023-02-28T19:20:53;101472.03;;;4.69
78669;BMP280;67984;45.118;20.724;2023-02-28T19:30:54;101474.31;;;4.71
78669;BMP280;67984;45.118;20.724;2023-02-28T19:41:06;101473.72;;;4.74
78669;BMP280;67984;45.118;20.724;2023-02-28T19:51:10;101463.53;;;4.77
78669;BMP280;67984;45.118;20.724;2023-02-28T20:01:14;101461.72;;;4.78
78669;BMP280;67984;45.118;20.724;2023-02-28T20:11:16;101464.00;;;4.88
78669;BMP280;67984;45.118;20.724;2023-02-28T20:21:18;101462.84;;;4.94
78669;BMP280;67984;45.118;20.724;2023-02-28T20:31:22;101457.06;;;4.97
78669;BMP280;67984;45.118;20.724;2023-02-28T20:41:22;101464.34;;;4.95
78669;BMP280;67984;45.118;20.724;2023-02-28T20:51:23;101471.81;;;4.96
78669;BMP280;67984;45.118;20.724;2023-02-28T21:01:26;101475.63;;;4.99
78669;BMP280;67984;45.118;20.724;2023-02-28T21:11:30;101460.13;;;4.99
78669;BMP280;67984;45.118;20.724;2023-02-28T21:21:33;101451.56;;;4.90
78669;BMP280;67984;45.118;20.724;2023-02-28T21:31:36;101443.06;;;4.81
78669;BMP280;67984;45.118;20.724;2023-02-28T21:41:37;101431.78;;;4.77
78669;BMP280;67984;45.118;20.724;2023-02-28T21:51:40;101423.41;;;4.71
78669;BMP280;67984;45.118;20.724;2023-02-28T22:01:42;101417.28;;;4.67
78669;BMP280;67984;45.118;20.724;2023-02-28T22:11:43;101412.00;;;4.64
78669;BMP280;67984;45.118;20.724;2023-02-28T22:21:44;101413.34;;;4.61
78669;BMP280;67984;45.118;20.724;2023-02-28T22:31:46;101420.34;;;4.61
78669;BMP280;67984;45.118;20.724;2023-02-28T22:41:47;101416.69;;;4.62
78669;BMP280;67984;45.118;20.724;2023-02-28T22:51:48;101412.13;;;4.59
78669;BMP280;67984;45.118;20.724;2023-02-28T23:01:48;101422.00;;;4.57
78669;BMP280;67984;45.118;20.724;2023-02-28T23:11:50;101421.53;;;4.55
78669;BMP280;67984;45.118;20.724;2023-02-28T23:21:51;101426.09;;;4.58
78669;BMP280;67984;45.118;20.724;2023-02-28T23:31:52;101416.81;;;4.57
78669;BMP280;67984;45.118;20.724;2023-02-28T23:41:53;101416.06;;;4.56
78669;BMP280;67984;45.118;20.724;2023-02-28T23:51:54;101409.53;;;4.59
